Wiarton Airport
CYVV : rendu visible

Aérodrome :











RETROUVEZ-NOUS SUR...

 
LOGIN :

S'inscrire | Disclaimer

   EN    FR    IT 

 









Légende :    VFR   VFR Marginal   IFR   IFR Intensif   IFR Très Intensif
Visi : 
Plafond : 
>= 8 km
>= 3000ft
5 à 8 km
1000 à 3000 ft
1500m à 5 km
500 à 1000 ft
800 à 1500m
200 à 500 ft
< 800m
< 200 ft
Symboles :   Orages  Brouillard  Fortes neiges  Fortes précipitations  Vent > 20 kt






- Altitude de l'aérodrome : 729 ft
- Code IATA : YVV


CYVV - Wiarton

DERNIER METAR :
  • 100829Z 28015G24KT 10SM OVC011 M01/M03 A2954 RMK SF8 SLP013

METARs EXPIRÉS :
  • 100800Z 29013G23KT 3SM BR OVC009 M01/M02 A2952 RMK SF8 PRESRR SLP006
  • 100757Z 28013G23KT 260V320 3SM BR OVC009 M01/M02 A2952 RMK SF8 PRESRR SLP006
  • 100727Z 29015G26KT 1SM -SHSN BR OVC007 M00/M01 A2948 RMK SN2SF6 CVCTV CLD EMBD PRESRR SLP990
  • 100705Z 28016G24KT 4SM -SHSN BR OVC008 01/M00 A2945 RMK SF8 CVCTV CLD EMBD PRESRR SLP980
  • 100631Z 28012G19KT 4SM BR OVC008 01/01 A2940 RMK SF8 PRESRR SLP965
  • 100600Z 29012G18KT 3SM -SHRA BR OVC005 03/02 A2937 RMK SF8 CVCTV CLD EMBD PRESRR SLP955
  • 100555Z 29013G27KT 3SM -SHRA BR OVC005 03/02 A2937 RMK SF8 WSHFT 0543 PRESRR SLP952

Prévision TAF périmée.



MET'MAP, la Météo Aéronautique d'un coup d'oeil ! - Copyright ORBIFLY Décembre 2007 - Disclaimer

ORBIFLY MET'MAP TEAM :

Programmation & Développement : Alexandra Zaïnal
Sur une idée originale de : Baudouin d'Aumeries
Assistance à la programmation : Marc-Olivier Méhu
Soutien technique & logistique : Manuel Goepfert

Contact : metmap@orbifly.com




SOURCES & CREDITS :

   NOAA       Earth
Advisory